MDT,Max TemperatureF,Mean TemperatureF,Min TemperatureF,Max Dew PointF,MeanDew PointF,Min DewpointF,Max Humidity, Mean Humidity, Min Humidity, Max Sea Level PressureIn, Mean Sea Level PressureIn, Min Sea Level PressureIn, Max VisibilityMiles, Mean VisibilityMiles, Min VisibilityMiles, Max Wind SpeedMPH, Mean Wind SpeedMPH, Max Gust SpeedMPH,PrecipitationIn, CloudCover, Events, WindDirDegrees
2013-9-1,91,73,55,57,51,44,93,57,21,30.03,29.93,29.84,10,10,10,17,4,21,0.00,1,,149
2013-9-2,92,74,56,50,47,42,77,48,18,30.04,29.94,29.84,10,10,10,21,6,25,0.00,0,,278
2013-9-3,94,76,58,49,45,34,67,40,12,30.06,29.96,29.88,10,10,10,20,4,24,0.00,0,,322
2013-9-4,95,80,64,52,47,39,63,39,15,30.19,30.02,29.89,10,10,10,36,4,45,T,1,Rain-Thunderstorm,105
2013-9-5,93,78,62,57,49,40,67,42,16,30.21,30.03,29.90,10,10,10,28,7,33,0.02,3,Rain-Thunderstorm,155
2013-9-6,94,76,58,59,49,35,90,52,13,30.12,30.01,29.86,10,10,10,33,8,40,0.00,0,,70
2013-9-7,93,76,59,55,46,35,61,37,13,30.09,29.95,29.79,10,10,7,25,6,32,0.02,2,Rain-Thunderstorm,112
2013-9-8,86,73,60,53,49,45,67,47,26,30.03,29.88,29.75,10,10,10,30,9,37,T,3,Rain,289
2013-9-9,67,63,58,58,55,49,93,75,56,30.10,29.96,29.85,10,8,1,25,3,30,0.47,6,Rain-Thunderstorm,265
2013-9-10,70,64,58,60,58,56,100,82,63,30.12,29.98,29.93,10,10,5,20,3,24,0.07,6,Rain,295
2013-9-11,70,65,60,61,58,54,100,81,61,30.21,30.06,29.98,10,9,2,20,3,24,0.04,6,Rain,338
2013-9-12,80,67,53,57,53,38,93,58,23,30.12,30.02,29.92,10,10,10,29,6,35,0.13,3,Rain,103
2013-9-13,78,68,58,57,52,44,100,65,30,30.16,29.88,29.74,10,10,10,13,3,15,T,4,Rain-Thunderstorm,149
2013-9-14,72,65,57,56,53,50,93,71,49,30.08,29.91,29.82,10,10,4,15,5,18,0.21,6,Rain-Thunderstorm,243
2013-9-15,71,64,56,56,53,47,100,71,41,30.13,30.00,29.93,10,10,10,16,4,18,0.06,6,Rain-Thunderstorm,92
2013-9-16,80,65,50,52,48,40,96,60,23,30.15,30.03,29.94,10,10,10,23,3,29,T,1,,25
2013-9-17,80,65,49,57,50,45,93,62,30,30.02,29.91,29.77,10,10,10,30,3,38,0.02,2,Thunderstorm,289
2013-9-18,78,66,53,55,51,46,93,69,44,30.02,29.86,29.72,10,10,5,25,6,31,0.17,3,Rain-Thunderstorm,144
2013-9-19,75,62,49,51,38,23,93,54,15,30.05,29.97,29.87,10,10,10,14,4,17,T,1,Rain,48
2013-9-20,78,59,39,36,32,20,79,45,11,30.13,30.02,29.92,10,10,10,23,5,29,0.00,0,,197
2013-9-21,82,64,46,46,38,33,71,45,19,29.98,29.86,29.72,10,10,10,29,7,37,T,2,Rain,235
2013-9-22,69,58,46,50,45,41,93,66,39,29.87,29.73,29.58,10,9,2,33,9,41,0.69,5,Rain-Thunderstorm,157
2013-9-23,64,55,46,45,42,34,93,64,34,30.12,29.93,29.76,10,10,9,17,6,21,0.08,5,Rain,277
2013-9-24,72,55,38,43,37,31,92,57,22,30.20,30.04,29.85,10,10,10,14,4,17,0.00,0,,177
2013-9-25,80,62,43,38,29,19,82,47,12,29.81,29.58,29.41,10,10,10,33,11,44,0.00,0,,213
2013-9-26,79,61,43,42,28,19,71,41,11,29.67,29.54,29.49,10,10,6,41,11,55,0.04,1,Rain,224
2013-9-27,56,46,35,47,39,32,93,80,66,30.17,29.89,29.57,10,10,4,30,7,39,0.39,7,Rain-Thunderstorm,165
2013-9-28,59,45,31,39,33,27,100,66,31,30.36,30.27,30.19,10,8,0,12,2,14,0.00,1,Fog,183
2013-9-29,67,50,33,39,33,26,92,57,22,30.28,30.14,30.00,10,10,10,23,5,25,0.00,0,,221
2013-9-30,75,56,37,37,32,25,85,51,16,30.04,29.95,29.82,10,10,10,24,5,31,0.00,0,,224